createdAt,value
2018-06-03T00:02:34.984Z,10.23
2018-06-03T00:17:35.030Z,11.03
2018-06-03T00:32:35.255Z,12.20
2018-06-03T00:47:36.567Z,11.73
2018-06-03T01:02:36.539Z,11.60
2018-06-03T01:17:34.564Z,11.97
2018-06-03T01:32:34.641Z,16.43
2018-06-03T01:47:36.690Z,10.33
2018-06-03T02:02:35.348Z,11.83
2018-06-03T02:17:34.723Z,10.87
2018-06-03T02:32:34.782Z,10.90
2018-06-03T02:47:34.732Z,11.60
2018-06-03T03:02:37.251Z,10.90
2018-06-03T03:17:35.455Z,12.20
2018-06-03T03:32:36.576Z,12.10
2018-06-03T03:47:35.927Z,12.37
2018-06-03T04:02:35.153Z,11.63
2018-06-03T04:17:34.493Z,10.80
2018-06-03T04:32:34.611Z,10.40
2018-06-03T04:47:34.911Z,14.33
2018-06-03T05:02:34.870Z,10.90
2018-06-03T05:17:34.914Z,12.03
2018-06-03T05:32:34.920Z,12.97
2018-06-03T05:47:34.308Z,11.70
2018-06-03T06:02:34.282Z,12.07
2018-06-03T06:17:34.487Z,11.27
2018-06-03T06:32:34.392Z,12.30
2018-06-03T06:47:34.628Z,12.50
2018-06-03T07:02:34.644Z,11.80
2018-06-03T07:17:34.653Z,11.40
2018-06-03T07:32:34.640Z,11.17
2018-06-03T07:47:35.028Z,11.80
2018-06-03T08:02:35.007Z,9.10
2018-06-03T08:17:34.525Z,10.33
2018-06-03T08:32:35.068Z,10.00
2018-06-03T08:47:34.376Z,11.27
2018-06-03T09:02:34.109Z,10.53
2018-06-03T09:17:34.651Z,10.43
2018-06-03T09:32:34.428Z,9.03
2018-06-03T09:47:34.738Z,8.33
2018-06-03T10:02:34.773Z,8.87
2018-06-03T10:17:37.400Z,8.60
2018-06-03T10:32:34.759Z,8.90
2018-06-03T10:47:38.156Z,9.07
2018-06-03T11:02:34.616Z,11.20
2018-06-03T11:17:35.129Z,11.70
2018-06-03T11:32:35.171Z,14.10
2018-06-03T11:47:34.489Z,13.57
2018-06-03T12:02:34.494Z,12.90
2018-06-03T12:17:34.512Z,12.30
2018-06-03T12:32:34.544Z,11.33
2018-06-03T12:47:34.833Z,11.40
2018-06-03T13:02:34.869Z,13.23
2018-06-03T13:17:34.412Z,13.73
2018-06-03T13:32:35.422Z,13.80
2018-06-03T13:47:35.261Z,16.03
2018-06-03T16:47:35.195Z,20.60
2018-06-03T17:02:35.032Z,18.77
2018-06-03T17:17:35.112Z,20.37
2018-06-03T17:32:35.121Z,22.70
2018-06-03T17:47:35.794Z,23.40
2018-06-03T18:02:35.390Z,25.17
2018-06-03T18:17:35.477Z,23.60
2018-06-03T18:32:34.385Z,23.50
2018-06-03T18:47:37.460Z,25.83
2018-06-03T19:02:36.706Z,24.73
2018-06-03T19:17:35.787Z,24.80
2018-06-03T19:32:35.213Z,24.13
2018-06-03T20:02:35.425Z,23.97
2018-06-03T20:17:35.089Z,24.60
2018-06-03T20:32:43.607Z,23.10
2018-06-03T20:47:35.657Z,24.20
2018-06-03T21:02:37.379Z,23.47
2018-06-03T21:17:36.259Z,23.13
2018-06-03T21:32:35.252Z,22.43
2018-06-03T21:47:38.752Z,20.57
2018-06-03T22:02:35.444Z,19.67
2018-06-03T22:17:35.193Z,20.30
2018-06-03T22:32:34.609Z,19.80
2018-06-03T22:47:37.188Z,18.93
2018-06-03T23:02:35.727Z,18.33
2018-06-03T23:17:38.866Z,15.77
2018-06-03T23:32:34.881Z,15.00
2018-06-03T23:47:36.905Z,13.33
